Time;durP1;ratioP1;P1;durP2;ratioP2;P2;SDS_P1;SDS_P2;PMS_P1;PMS_P2;Temp;Humidity;BMP_temperature;BMP_pressure;BME280_temperature;BME280_humidity;BME280_pressure;Samples;Min_cycle;Max_cycle;Signal;HPM_P1;HPM_P2
2022/04/03 00:01:34;;;;;;;6.50;3.70;;;2.40;49.60;;;;;;5027941;28;25086;-59
2022/04/03 00:03:59;;;;;;;7.53;3.70;;;2.40;50.40;;;;;;5020241;28;25088;-60
2022/04/03 00:06:25;;;;;;;16.48;4.30;;;2.40;51.10;;;;;;5019550;28;25086;-59
2022/04/03 00:08:50;;;;;;;6.78;3.50;;;2.40;51.80;;;;;;5018321;28;25162;-60
2022/04/03 00:11:16;;;;;;;10.00;3.75;;;2.30;52.20;;;;;;5026043;28;25079;-59
2022/04/03 00:13:42;;;;;;;7.85;3.47;;;2.30;52.70;;;;;;5027541;28;25062;-60
2022/04/03 00:16:07;;;;;;;7.07;3.70;;;2.40;52.80;;;;;;5027874;28;25071;-60
2022/04/03 00:18:33;;;;;;;6.68;3.58;;;2.40;53.00;;;;;;5013620;28;25167;-60
2022/04/03 00:21:00;;;;;;;11.60;4.18;;;2.50;52.60;;;;;;5008551;28;25062;-61
2022/04/03 00:23:26;;;;;;;8.05;4.03;;;2.60;52.20;;;;;;5016252;28;25105;-60
2022/04/03 00:25:52;;;;;;;7.60;4.47;;;2.60;52.10;;;;;;5028322;28;25058;-59
2022/04/03 00:28:19;;;;;;;8.95;3.95;;;2.60;52.90;;;;;;5027862;28;25074;-59
2022/04/03 00:30:45;;;;;;;8.85;3.65;;;2.50;53.90;;;;;;5027675;28;25113;-61
2022/04/03 00:33:11;;;;;;;10.48;4.07;;;2.40;54.90;;;;;;5027655;28;24897;-59
2022/04/03 00:35:37;;;;;;;5.43;3.50;;;2.40;55.40;;;;;;5029198;28;25127;-59
2022/04/03 00:38:02;;;;;;;7.82;4.50;;;2.40;55.70;;;;;;5018425;28;25149;-60
2022/04/03 00:40:28;;;;;;;7.82;4.15;;;2.40;56.10;;;;;;5028336;28;25128;-60
2022/04/03 00:42:54;;;;;;;6.45;3.58;;;2.50;56.40;;;;;;5028293;28;25097;-60
2022/04/03 00:45:20;;;;;;;9.10;3.78;;;2.50;56.40;;;;;;5011666;28;25070;-60
2022/04/03 00:47:48;;;;;;;8.23;4.80;;;2.50;56.50;;;;;;5015364;28;25123;-60
2022/04/03 00:50:15;;;;;;;8.23;4.40;;;2.50;56.30;;;;;;5019711;28;25084;-61
2022/04/03 00:52:41;;;;;;;10.65;3.83;;;2.50;56.60;;;;;;5014316;28;25059;-61
2022/04/03 00:55:07;;;;;;;11.20;4.30;;;2.50;56.80;;;;;;5024355;28;25063;-60
2022/04/03 00:57:33;;;;;;;10.18;3.83;;;2.50;56.50;;;;;;5023179;28;25060;-59
2022/04/03 00:59:59;;;;;;;8.15;3.85;;;2.50;56.50;;;;;;5035500;28;25126;-61
2022/04/03 01:02:25;;;;;;;8.40;4.32;;;2.60;56.10;;;;;;5034639;28;25168;-59
2022/04/03 01:04:50;;;;;;;8.63;3.78;;;2.50;56.50;;;;;;5032737;28;25052;-60
2022/04/03 01:07:16;;;;;;;9.65;3.88;;;2.50;56.80;;;;;;5018486;28;25077;-60
2022/04/03 01:09:41;;;;;;;9.57;3.72;;;2.50;56.70;;;;;;5020713;28;25098;-60
2022/04/03 01:12:07;;;;;;;6.85;3.53;;;2.50;57.10;;;;;;5027515;28;25099;-60
2022/04/03 01:14:36;;;;;;;6.18;3.85;;;2.50;57.20;;;;;;5025655;28;25060;-60
2022/04/03 01:17:03;;;;;;;6.15;3.60;;;2.50;56.90;;;;;;5009944;28;25135;-60
2022/04/03 01:19:29;;;;;;;6.25;4.13;;;2.40;56.60;;;;;;5008100;28;25173;-60
2022/04/03 01:21:55;;;;;;;7.40;3.85;;;2.30;57.10;;;;;;5018972;28;25101;-61
2022/04/03 01:24:22;;;;;;;10.98;3.72;;;2.20;57.40;;;;;;5024892;28;25124;-60
2022/04/03 01:26:48;;;;;;;10.70;4.03;;;2.20;57.70;;;;;;5007153;28;25082;-59
2022/04/03 01:29:15;;;;;;;7.05;3.60;;;2.20;58.00;;;;;;5010573;28;25166;-61
2022/04/03 01:31:41;;;;;;;5.25;3.78;;;2.10;58.30;;;;;;5017370;28;25097;-60
2022/04/03 01:34:07;;;;;;;5.65;3.20;;;2.10;59.20;;;;;;5024711;28;25082;-59
2022/04/03 01:36:33;;;;;;;8.60;4.38;;;2.00;59.60;;;;;;5011089;28;25085;-59
2022/04/03 01:38:58;;;;;;;6.78;4.30;;;2.10;59.90;;;;;;5019911;28;25113;-59
2022/04/03 01:41:24;;;;;;;8.40;4.00;;;2.00;59.30;;;;;;5026765;28;25058;-60
2022/04/03 01:43:49;;;;;;;7.68;4.18;;;1.90;60.90;;;;;;5007466;28;25139;-60
2022/04/03 01:46:15;;;;;;;9.48;4.28;;;2.00;60.90;;;;;;5006797;28;25146;-62
2022/04/03 01:48:41;;;;;;;6.47;4.15;;;1.90;61.30;;;;;;5012566;28;25138;-62
2022/04/03 01:51:06;;;;;;;6.72;3.65;;;1.80;61.70;;;;;;5021824;28;25141;-63
2022/04/03 01:53:32;;;;;;;7.60;3.75;;;1.70;62.20;;;;;;5025313;28;25181;-61
2022/04/03 01:55:59;;;;;;;7.80;4.07;;;1.70;63.60;;;;;;5025647;28;25078;-61
2022/04/03 01:58:24;;;;;;;4.88;3.70;;;1.70;63.60;;;;;;5017374;28;25139;-61
2022/04/03 02:00:50;;;;;;;8.52;3.92;;;1.60;63.30;;;;;;5015405;28;25079;-61
2022/04/03 02:03:16;;;;;;;5.03;3.70;;;1.50;63.90;;;;;;5014965;28;25169;-61
2022/04/03 02:05:41;;;;;;;17.30;4.63;;;1.40;64.70;;;;;;5023891;28;25133;-61
2022/04/03 02:08:07;;;;;;;12.63;4.53;;;1.50;64.70;;;;;;5025753;28;25069;-61
2022/04/03 02:10:32;;;;;;;9.13;3.47;;;1.50;65.10;;;;;;5023178;28;25116;-61
2022/04/03 02:12:58;;;;;;;8.25;4.00;;;1.60;65.80;;;;;;5025668;28;25099;-59
2022/04/03 02:15:24;;;;;;;5.32;3.90;;;1.60;65.40;;;;;;5022576;28;25113;-60
2022/04/03 02:17:49;;;;;;;6.25;3.97;;;1.60;65.40;;;;;;5012077;28;25103;-59
2022/04/03 02:20:15;;;;;;;12.30;3.97;;;1.50;65.30;;;;;;5027919;28;25158;-60
2022/04/03 02:22:41;;;;;;;8.73;4.38;;;1.20;66.30;;;;;;5013394;28;25142;-60
2022/04/03 02:25:09;;;;;;;8.38;4.05;;;1.20;67.50;;;;;;5027942;28;25080;-61
2022/04/03 02:27:36;;;;;;;7.57;4.03;;;1.20;68.00;;;;;;5019566;28;25072;-60
2022/04/03 02:30:03;;;;;;;8.13;3.92;;;1.20;68.00;;;;;;5014356;28;25121;-61
2022/04/03 02:32:29;;;;;;;6.88;3.90;;;1.30;67.80;;;;;;5020529;28;25066;-60
2022/04/03 02:34:54;;;;;;;7.38;4.10;;;1.20;68.10;;;;;;5025537;28;25063;-61
2022/04/03 02:37:20;;;;;;;8.38;3.90;;;1.40;68.70;;;;;;5009990;28;25113;-60
2022/04/03 02:39:46;;;;;;;7.32;4.32;;;1.30;67.80;;;;;;5026210;28;25133;-59
2022/04/03 02:42:11;;;;;;;5.53;3.60;;;1.30;68.30;;;;;;5015814;28;25067;-61
2022/04/03 02:44:37;;;;;;;7.78;4.07;;;1.40;69.10;;;;;;5012802;28;25068;-59
2022/04/03 02:47:03;;;;;;;9.95;4.53;;;1.30;69.20;;;;;;5017287;28;25085;-61
2022/04/03 02:49:29;;;;;;;7.25;4.35;;;1.20;70.20;;;;;;5026686;28;25166;-62
2022/04/03 02:51:54;;;;;;;7.25;3.92;;;1.20;71.00;;;;;;5025404;28;25136;-60
2022/04/03 02:54:20;;;;;;;8.10;4.30;;;1.20;71.70;;;;;;5026030;28;25157;-59
2022/04/03 02:56:45;;;;;;;9.95;5.25;;;1.10;71.30;;;;;;5008338;28;25133;-59
2022/04/03 02:59:12;;;;;;;8.07;4.40;;;1.10;71.30;;;;;;5021118;28;25126;-59
2022/04/03 03:01:38;;;;;;;7.75;4.55;;;1.10;72.10;;;;;;5022774;28;25149;-59
2022/04/03 03:04:03;;;;;;;7.75;4.18;;;1.00;72.20;;;;;;5022545;28;25114;-60
2022/04/03 03:06:29;;;;;;;6.53;4.50;;;1.00;72.20;;;;;;5024493;28;25133;-59
2022/04/03 03:08:54;;;;;;;11.77;4.45;;;1.00;72.30;;;;;;5024087;28;25085;-60
2022/04/03 03:11:20;;;;;;;5.30;4.10;;;0.90;71.70;;;;;;5026394;28;25063;-60
2022/04/03 03:13:45;;;;;;;6.32;4.25;;;0.70;72.50;;;;;;5027576;28;25109;-59
2022/04/03 03:16:11;;;;;;;7.65;4.18;;;0.80;73.70;;;;;;5028024;28;25147;-60
2022/04/03 03:18:37;;;;;;;7.32;3.60;;;0.80;73.70;;;;;;5028780;28;25059;-59
2022/04/03 03:21:02;;;;;;;8.85;4.65;;;0.90;73.80;;;;;;5026444;28;25058;-59
2022/04/03 03:23:29;;;;;;;9.82;4.90;;;0.80;73.40;;;;;;5021764;28;25079;-60
2022/04/03 03:25:55;;;;;;;11.35;4.90;;;0.80;73.60;;;;;;5029544;28;25097;-60
2022/04/03 03:28:20;;;;;;;9.15;4.15;;;0.70;74.00;;;;;;5028361;28;25123;-61
2022/04/03 03:30:46;;;;;;;5.80;3.92;;;0.70;74.70;;;;;;5025949;28;25077;-60
2022/04/03 03:33:12;;;;;;;5.32;3.90;;;0.70;75.10;;;;;;5026613;28;25149;-60
2022/04/03 03:35:37;;;;;;;10.50;4.78;;;0.80;75.10;;;;;;5027791;28;25092;-59
2022/04/03 03:38:03;;;;;;;11.00;4.93;;;0.80;74.50;;;;;;5026449;28;25069;-61
2022/04/03 03:40:29;;;;;;;9.93;4.47;;;0.80;75.10;;;;;;5027490;28;25061;-61
2022/04/03 03:42:55;;;;;;;10.10;4.68;;;0.90;75.30;;;;;;5026285;28;25095;-60
2022/04/03 03:45:21;;;;;;;9.50;5.00;;;0.80;74.90;;;;;;5023634;28;25089;-60
2022/04/03 03:47:48;;;;;;;5.70;4.07;;;0.70;75.70;;;;;;5028233;28;25093;-60
2022/04/03 03:50:14;;;;;;;5.47;3.92;;;0.70;75.90;;;;;;5030001;28;25082;-60
2022/04/03 03:52:41;;;;;;;9.40;5.05;;;0.70;76.70;;;;;;5011348;28;25081;-60
2022/04/03 03:55:08;;;;;;;8.98;4.68;;;0.70;76.50;;;;;;5024452;28;25101;-60
2022/04/03 03:57:34;;;;;;;9.82;5.05;;;0.70;77.10;;;;;;5013525;28;25082;-60
2022/04/03 04:00:00;;;;;;;7.50;4.32;;;0.70;78.20;;;;;;5028649;28;25120;-59
2022/04/03 04:02:25;;;;;;;10.35;4.60;;;0.80;78.60;;;;;;5027034;28;25117;-60
2022/04/03 04:04:51;;;;;;;10.80;5.57;;;0.90;79.10;;;;;;5019781;28;25110;-60
2022/04/03 04:07:16;;;;;;;10.73;4.53;;;0.90;79.20;;;;;;5028840;28;25072;-60
2022/04/03 04:09:42;;;;;;;10.30;5.05;;;1.10;78.80;;;;;;5012163;28;25080;-60
2022/04/03 04:12:09;;;;;;;5.50;3.92;;;1.20;79.10;;;;;;5019650;28;25073;-60
2022/04/03 04:14:36;;;;;;;8.40;4.93;;;1.20;78.10;;;;;;5028996;28;25067;-60
2022/04/03 04:17:01;;;;;;;7.03;4.80;;;1.30;78.20;;;;;;5030118;28;25063;-60
2022/04/03 04:19:27;;;;;;;8.52;5.03;;;1.30;77.50;;;;;;5027334;28;25057;-60
2022/04/03 04:21:52;;;;;;;9.52;4.60;;;1.20;77.40;;;;;;5032173;23;25141;-70
2022/04/03 04:24:18;;;;;;;7.60;4.97;;;1.20;77.60;;;;;;5046550;28;25057;-67
2022/04/03 04:26:43;;;;;;;8.43;4.82;;;1.20;78.20;;;;;;5056243;28;25063;-66
2022/04/03 04:29:09;;;;;;;7.10;4.97;;;1.30;77.80;;;;;;5065775;28;25070;-68
2022/04/03 04:31:35;;;;;;;6.35;4.30;;;1.20;77.40;;;;;;5066831;28;25068;-68
2022/04/03 04:34:00;;;;;;;9.07;5.18;;;1.20;77.20;;;;;;5047729;28;25081;-67
2022/04/03 04:36:29;;;;;;;9.40;5.63;;;1.20;77.10;;;;;;5055175;28;25057;-67
2022/04/03 04:38:55;;;;;;;10.70;5.53;;;1.20;77.60;;;;;;5065578;28;25065;-69
2022/04/03 04:41:21;;;;;;;10.98;5.88;;;1.20;77.40;;;;;;5065660;28;25084;-67
2022/04/03 04:43:46;;;;;;;9.55;5.32;;;1.20;77.20;;;;;;5032207;28;25199;-67
2022/04/03 04:46:12;;;;;;;10.73;6.07;;;1.20;77.30;;;;;;5046267;28;25126;-67
2022/04/03 04:48:38;;;;;;;10.48;5.72;;;1.00;77.10;;;;;;5063954;28;25183;-69
2022/04/03 04:51:04;;;;;;;12.57;5.88;;;1.00;77.60;;;;;;5065743;28;25068;-67
2022/04/03 04:53:29;;;;;;;8.45;5.53;;;1.00;77.80;;;;;;5065515;28;25075;-69
2022/04/03 04:55:55;;;;;;;11.77;5.60;;;0.90;78.50;;;;;;5043062;28;25161;-66
2022/04/03 04:58:20;;;;;;;9.75;5.22;;;0.90;78.80;;;;;;5028995;28;25116;-68
2022/04/03 05:00:46;;;;;;;9.38;5.65;;;0.90;79.20;;;;;;5047512;28;25106;-68
2022/04/03 05:03:12;;;;;;;11.55;6.35;;;1.00;79.70;;;;;;5055320;28;25074;-68
2022/04/03 05:05:38;;;;;;;10.65;6.45;;;1.10;79.60;;;;;;5047485;28;25058;-69
2022/04/03 05:08:04;;;;;;;10.38;6.90;;;1.10;79.40;;;;;;5048692;28;25149;-69
2022/04/03 05:10:31;;;;;;;9.45;6.15;;;1.10;79.40;;;;;;5059390;28;25096;-67
2022/04/03 05:12:58;;;;;;;16.33;7.00;;;1.20;79.40;;;;;;5054865;28;25079;-68
2022/04/03 05:15:29;;;;;;;11.38;6.75;;;1.10;79.20;;;;;;5037229;28;25061;-68
2022/04/03 05:17:55;;;;;;;9.55;5.88;;;1.10;79.10;;;;;;5044849;28;25085;-68
2022/04/03 05:20:21;;;;;;;9.48;6.90;;;0.90;79.20;;;;;;5047022;28;25132;-67
2022/04/03 05:22:48;;;;;;;11.63;6.30;;;0.90;79.90;;;;;;5047658;28;25094;-68
2022/04/03 05:25:13;;;;;;;8.20;6.10;;;0.90;80.50;;;;;;5041222;28;25128;-67
2022/04/03 05:27:40;;;;;;;13.52;6.82;;;0.90;80.70;;;;;;5071430;28;25082;-68
2022/04/03 05:30:07;;;;;;;9.82;6.78;;;0.90;80.30;;;;;;5057689;28;25074;-67
2022/04/03 05:32:33;;;;;;;10.70;6.38;;;0.90;80.30;;;;;;5063536;28;25063;-68
2022/04/03 05:34:59;;;;;;;12.23;6.30;;;0.90;80.80;;;;;;5037536;28;25107;-67
2022/04/03 05:37:25;;;;;;;12.75;6.65;;;0.90;80.90;;;;;;5047245;28;25098;-69
2022/04/03 05:39:52;;;;;;;13.88;6.97;;;0.80;81.00;;;;;;5053164;28;25054;-68
2022/04/03 05:42:21;;;;;;;10.52;6.35;;;0.70;81.70;;;;;;5064814;28;25096;-68
2022/04/03 05:44:47;;;;;;;8.77;6.20;;;0.80;82.70;;;;;;5051383;28;25068;-68
2022/04/03 05:47:13;;;;;;;12.27;7.70;;;0.90;82.20;;;;;;5048492;28;25137;-68
2022/04/03 05:49:38;;;;;;;12.13;7.03;;;0.80;82.50;;;;;;5027415;28;25076;-67
2022/04/03 05:52:05;;;;;;;14.27;8.18;;;0.80;82.30;;;;;;5058097;28;25058;-67
2022/04/03 05:54:30;;;;;;;13.73;7.32;;;0.80;82.40;;;;;;5067906;28;25113;-68
2022/04/03 05:56:56;;;;;;;12.77;7.15;;;0.80;83.10;;;;;;5071446;28;25078;-68
2022/04/03 05:59:22;;;;;;;17.30;7.53;;;0.90;83.30;;;;;;5072907;28;25102;-68
2022/04/03 06:01:48;;;;;;;16.77;7.45;;;1.00;83.70;;;;;;5069066;28;25144;-67
2022/04/03 06:04:14;;;;;;;11.55;7.03;;;1.10;83.60;;;;;;5065095;28;25067;-68
2022/04/03 06:06:40;;;;;;;10.48;6.72;;;1.20;84.00;;;;;;5061855;28;25052;-67
2022/04/03 06:09:05;;;;;;;15.65;6.63;;;1.30;83.60;;;;;;5049550;28;25117;-66
2022/04/03 06:11:31;;;;;;;12.88;7.45;;;1.30;82.80;;;;;;5063190;28;25129;-67
2022/04/03 06:13:56;;;;;;;12.02;6.50;;;1.30;82.60;;;;;;5070419;28;25139;-66
2022/04/03 06:16:22;;;;;;;11.52;6.55;;;1.40;82.90;;;;;;5062627;28;25074;-69
2022/04/03 06:18:47;;;;;;;13.25;6.72;;;1.50;82.60;;;;;;5065406;28;25111;-68
2022/04/03 06:21:13;;;;;;;11.40;7.03;;;1.60;82.50;;;;;;5060914;28;25093;-67
2022/04/03 06:23:39;;;;;;;10.63;7.43;;;1.60;82.00;;;;;;5063196;28;25095;-68
2022/04/03 06:26:06;;;;;;;13.07;6.95;;;1.70;81.80;;;;;;5062916;28;25059;-67
2022/04/03 06:28:31;;;;;;;13.70;7.18;;;1.80;81.60;;;;;;5061004;28;25137;-68
2022/04/03 06:30:57;;;;;;;10.63;6.18;;;1.90;81.50;;;;;;5060418;28;25066;-67
2022/04/03 06:33:23;;;;;;;14.30;6.72;;;2.00;81.10;;;;;;5062177;28;25055;-67
2022/04/03 06:35:49;;;;;;;10.52;6.65;;;2.10;80.50;;;;;;5050883;28;25086;-66
2022/04/03 06:38:17;;;;;;;10.80;7.18;;;2.20;79.90;;;;;;5047412;28;25116;-68
2022/04/03 06:40:53;;;;;;;11.18;7.00;;;2.20;79.50;;;;;;5063335;28;25164;-68
2022/04/03 06:43:24;;;;;;;12.88;6.05;;;2.30;79.00;;;;;;5058871;28;25082;-67
2022/04/03 06:45:50;;;;;;;11.25;6.90;;;2.40;78.70;;;;;;5063311;28;25071;-69
2022/04/03 06:48:16;;;;;;;8.60;6.30;;;2.50;78.40;;;;;;5047481;28;25090;-68
2022/04/03 06:50:42;;;;;;;14.15;6.93;;;2.50;78.00;;;;;;5073231;28;25135;-69
2022/04/03 06:53:08;;;;;;;11.38;7.15;;;2.60;77.70;;;;;;5042323;28;25118;-69
2022/04/03 06:55:34;;;;;;;10.52;6.65;;;2.70;77.20;;;;;;5040104;28;25158;-71
2022/04/03 06:58:00;;;;;;;8.13;6.00;;;2.80;76.20;;;;;;5066249;28;25065;-70
2022/04/03 07:00:26;;;;;;;11.23;6.75;;;3.00;76.50;;;;;;5062459;28;25052;-71
2022/04/03 07:02:51;;;;;;;11.30;6.18;;;3.00;75.10;;;;;;5061832;28;25060;-70
2022/04/03 07:05:18;;;;;;;9.75;6.22;;;3.10;75.10;;;;;;5060394;28;25069;-69
2022/04/03 07:07:43;;;;;;;10.20;5.93;;;3.20;74.40;;;;;;5060407;28;25151;-70
2022/04/03 07:10:09;;;;;;;10.85;6.40;;;3.20;74.30;;;;;;5058664;28;25081;-71
2022/04/03 07:12:35;;;;;;;9.23;5.32;;;3.30;74.30;;;;;;5057238;28;25058;-69
2022/04/03 07:15:02;;;;;;;7.30;5.63;;;3.40;73.80;;;;;;5059438;28;25129;-71
2022/04/03 07:17:27;;;;;;;10.65;5.25;;;3.50;73.60;;;;;;5027262;28;25098;-70
2022/04/03 07:19:53;;;;;;;8.13;4.63;;;3.60;72.80;;;;;;5058951;28;25099;-71
2022/04/03 07:22:18;;;;;;;8.18;4.68;;;3.60;71.00;;;;;;5063272;28;25072;-71
2022/04/03 07:24:44;;;;;;;6.05;3.30;;;3.70;70.00;;;;;;5029824;28;25136;-70
2022/04/03 07:27:09;;;;;;;6.53;2.78;;;3.70;67.90;;;;;;5060243;28;25047;-71
2022/04/03 07:29:35;;;;;;;3.58;2.13;;;3.70;66.00;;;;;;5058818;28;25055;-71
2022/04/03 07:32:01;;;;;;;6.65;3.08;;;3.70;62.40;;;;;;5058036;28;25104;-71
2022/04/03 07:34:27;;;;;;;5.18;3.42;;;3.80;61.30;;;;;;5063378;28;25112;-72
2022/04/03 07:36:53;;;;;;;8.02;3.60;;;4.00;60.30;;;;;;5053481;28;25101;-72
2022/04/03 07:39:18;;;;;;;7.22;4.05;;;4.10;60.20;;;;;;5057001;28;25116;-71
2022/04/03 07:41:44;;;;;;;8.45;3.60;;;4.20;60.30;;;;;;5041475;28;25133;-72
2022/04/03 07:44:11;;;;;;;4.72;3.35;;;4.20;58.80;;;;;;5039667;28;25188;-71
2022/04/03 07:46:37;;;;;;;5.97;3.45;;;4.40;58.90;;;;;;5059974;28;25066;-70
2022/04/03 07:49:04;;;;;;;15.30;3.85;;;4.40;57.70;;;;;;5058110;28;25092;-70
2022/04/03 07:51:30;;;;;;;7.20;4.10;;;4.50;56.90;;;;;;5043802;28;25062;-73
2022/04/03 07:53:56;;;;;;;9.52;4.18;;;4.60;57.10;;;;;;5063239;28;25153;-72
2022/04/03 07:56:22;;;;;;;7.30;4.60;;;4.70;55.90;;;;;;5063883;28;25131;-71
2022/04/03 07:58:48;;;;;;;10.75;4.28;;;4.70;56.40;;;;;;5068518;28;25093;-71
2022/04/03 08:01:14;;;;;;;5.78;3.15;;;4.80;55.60;;;;;;5068728;28;25004;-72
2022/04/03 08:03:40;;;;;;;6.10;2.70;;;4.80;54.00;;;;;;5044398;28;25167;-73
2022/04/03 08:06:06;;;;;;;7.60;3.00;;;4.90;51.80;;;;;;5072358;28;25102;-74
2022/04/03 08:08:31;;;;;;;4.43;2.97;;;5.00;49.00;;;;;;5070069;28;25147;-73
2022/04/03 08:10:57;;;;;;;3.85;3.20;;;5.10;48.60;;;;;;5083939;28;25079;-72
2022/04/03 08:13:23;;;;;;;6.95;3.35;;;5.20;48.00;;;;;;5073088;28;25165;-70
2022/04/03 08:15:49;;;;;;;9.10;3.35;;;5.30;48.30;;;;;;5078951;28;25061;-72
2022/04/03 08:18:15;;;;;;;5.10;3.20;;;5.40;48.30;;;;;;5085688;28;25150;-72
2022/04/03 08:20:40;;;;;;;4.65;3.47;;;5.60;48.00;;;;;;5081971;28;25117;-71
2022/04/03 08:23:06;;;;;;;7.32;3.10;;;5.70;47.20;;;;;;5071399;28;25048;-72
2022/04/03 08:25:33;;;;;;;12.50;3.47;;;5.70;46.40;;;;;;5049777;28;25096;-71
2022/04/03 08:28:02;;;;;;;5.03;2.63;;;5.90;46.70;;;;;;5073856;28;25075;-71
2022/04/03 08:30:31;;;;;;;5.93;2.42;;;6.00;45.80;;;;;;5058673;28;25068;-71
2022/04/03 08:32:58;;;;;;;3.35;2.10;;;6.30;44.30;;;;;;5080505;28;25106;-70
2022/04/03 08:35:26;;;;;;;5.10;2.08;;;6.60;41.10;;;;;;5079791;28;25072;-70
2022/04/03 08:37:52;;;;;;;3.55;1.95;;;6.50;40.50;;;;;;5070531;28;25111;-71
2022/04/03 08:40:20;;;;;;;3.53;1.77;;;6.80;39.80;;;;;;5064905;28;25379;-71
2022/04/03 08:42:46;;;;;;;14.10;2.83;;;7.00;38.40;;;;;;5053746;28;25136;-70
2022/04/03 08:45:12;;;;;;;6.25;2.20;;;7.20;36.40;;;;;;5061623;28;25068;-70
2022/04/03 08:47:49;;;;;;;5.40;2.20;;;6.80;38.30;;;;;;5067908;28;25109;-71
2022/04/03 08:50:16;;;;;;;5.40;1.98;;;6.80;38.30;;;;;;5042791;28;25152;-69
2022/04/03 08:52:48;;;;;;;2.10;1.75;;;7.10;39.40;;;;;;5048768;28;25145;-70
2022/04/03 08:55:14;;;;;;;4.55;2.15;;;7.20;38.00;;;;;;5066687;28;25074;-71
2022/04/03 08:57:40;;;;;;;5.25;2.13;;;7.40;36.30;;;;;;5069091;28;25147;-69
2022/04/03 09:00:07;;;;;;;3.53;1.80;;;7.50;35.70;;;;;;5072361;28;25090;-68
2022/04/03 09:02:33;;;;;;;3.10;1.95;;;7.60;35.30;;;;;;5062360;28;25093;-72
2022/04/03 09:04:59;;;;;;;7.57;1.95;;;7.40;35.00;;;;;;5048765;28;25059;-71
2022/04/03 09:07:28;;;;;;;5.15;1.88;;;7.20;35.90;;;;;;5067415;28;25076;-68
2022/04/03 09:10:16;;;;;;;1.80;1.60;;;7.10;33.50;;;;;;5062949;28;25128;-68
2022/04/03 09:12:53;;;;;;;3.58;1.33;;;7.00;33.10;;;;;;5063272;28;25058;-67
2022/04/03 09:15:20;;;;;;;5.97;1.73;;;7.00;32.90;;;;;;5061495;28;25076;-67
2022/04/03 09:17:49;;;;;;;4.20;2.00;;;7.00;34.70;;;;;;5055138;28;25055;-69
2022/04/03 09:20:17;;;;;;;4.75;2.00;;;7.10;35.10;;;;;;5027561;28;25104;-69
2022/04/03 09:22:45;;;;;;;6.63;1.98;;;7.20;34.70;;;;;;5045908;28;25087;-69
2022/04/03 09:25:13;;;;;;;3.95;2.10;;;7.60;34.40;;;;;;5027758;28;25077;-70
2022/04/03 09:27:47;;;;;;;2.92;1.75;;;7.90;31.30;;;;;;5063102;28;25128;-69
2022/04/03 09:30:13;;;;;;;2.17;1.48;;;7.90;30.10;;;;;;5047254;28;25054;-71
2022/04/03 09:32:54;;;;;;;7.13;2.22;;;8.40;31.10;;;;;;5060324;28;25103;-71
2022/04/03 09:35:24;;;;;;;6.45;2.30;;;8.50;28.60;;;;;;5049420;28;25085;-70
2022/04/03 09:38:05;;;;;;;4.18;2.00;;;8.40;28.80;;;;;;5047694;28;25057;-68
2022/04/03 09:40:32;;;;;;;7.88;2.13;;;8.70;28.70;;;;;;5064058;28;25061;-72
2022/04/03 09:43:18;;;;;;;3.95;1.98;;;8.70;27.80;;;;;;5053346;28;25062;-69
2022/04/03 09:45:51;;;;;;;5.85;2.22;;;8.20;26.40;;;;;;5045879;28;25110;-70
2022/04/03 09:48:20;;;;;;;;;;;7.60;29.40;;;;;;5066408;28;25062;-69
2022/04/03 09:51:04;;;;;;;7.18;2.00;;;7.40;30.10;;;;;;5067562;28;24080;-70
2022/04/03 09:53:40;;;;;;;2.83;1.77;;;7.20;30.40;;;;;;5056360;28;25081;-68
2022/04/03 09:56:07;;;;;;;3.20;1.40;;;6.90;31.10;;;;;;5036793;28;25115;-67
2022/04/03 09:58:53;;;;;;;4.05;0.95;;;6.90;30.90;;;;;;5047911;28;25149;-68
2022/04/03 10:01:30;;;;;;;3.63;1.13;;;6.80;30.00;;;;;;5055608;28;25116;-70
2022/04/03 10:04:00;;;;;;;2.58;0.80;;;6.70;31.00;;;;;;5067077;28;25081;-69
2022/04/03 10:06:27;;;;;;;2.63;0.88;;;6.60;33.20;;;;;;5067989;28;25162;-69
2022/04/03 10:08:53;;;;;;;3.03;1.00;;;6.80;33.50;;;;;;5056784;28;25070;-69
2022/04/03 10:11:20;;;;;;;3.50;0.70;;;6.70;32.40;;;;;;5047076;28;25120;-68
2022/04/03 10:13:46;;;;;;;4.80;1.10;;;6.70;32.70;;;;;;5048431;28;25064;-68
2022/04/03 10:16:13;;;;;;;5.72;1.23;;;6.70;32.90;;;;;;5053657;28;25116;-70
2022/04/03 10:18:46;;;;;;;2.78;0.80;;;6.60;32.20;;;;;;5055381;28;25081;-69
2022/04/03 10:21:23;;;;;;;5.07;1.70;;;6.70;33.10;;;;;;5054380;28;25144;-70
2022/04/03 10:23:52;;;;;;;5.57;1.15;;;6.70;31.80;;;;;;5055975;28;25085;-69
2022/04/03 10:26:20;;;;;;;3.17;1.70;;;6.70;32.10;;;;;;5057820;28;25048;-68
2022/04/03 10:28:53;;;;;;;4.28;1.45;;;6.80;33.80;;;;;;5051625;28;25175;-68
2022/04/03 10:31:19;;;;;;;4.55;1.63;;;6.60;35.10;;;;;;5036131;28;25073;-68
2022/04/03 10:33:49;;;;;;;4.28;1.75;;;6.60;36.90;;;;;;5055593;28;25074;-70
2022/04/03 10:36:24;;;;;;;3.88;2.25;;;6.80;37.60;;;;;;5044947;28;25133;-69
2022/04/03 10:38:57;;;;;;;8.93;2.05;;;6.80;37.40;;;;;;5036627;28;25118;-68
2022/04/03 10:41:39;;;;;;;5.55;1.80;;;6.80;35.80;;;;;;5062537;28;25045;-68
2022/04/03 10:44:25;;;;;;;2.35;1.20;;;6.90;36.60;;;;;;5058851;28;25085;-68
2022/04/03 10:47:03;;;;;;;2.50;1.15;;;7.70;34.90;;;;;;5046764;28;25061;-70
2022/04/03 10:49:46;;;;;;;5.95;1.38;;;7.90;30.20;;;;;;5028388;28;25052;-68
2022/04/03 10:52:33;;;;;;;;;;;8.20;29.40;;;;;;5048613;28;25075;-70
2022/04/03 10:55:02;;;;;;;4.00;1.75;;;8.10;28.80;;;;;;5043010;28;25074;-70
2022/04/03 10:57:31;;;;;;;10.93;1.88;;;7.90;28.50;;;;;;5064800;28;25063;-70
2022/04/03 11:00:12;;;;;;;3.55;1.20;;;7.60;31.10;;;;;;5063294;28;25124;-69
2022/04/03 11:02:42;;;;;;;2.75;1.08;;;7.40;29.90;;;;;;5044170;28;25069;-68
2022/04/03 11:05:29;;;;;;;1.80;0.80;;;7.00;30.60;;;;;;5024700;28;25083;-69
2022/04/03 11:08:18;;;;;;;6.22;0.70;;;6.80;31.20;;;;;;5043810;28;25111;-69
2022/04/03 11:11:07;;;;;;;4.95;1.17;;;6.70;31.30;;;;;;5060663;28;25113;-69
2022/04/03 11:13:35;;;;;;;2.67;1.02;;;6.70;31.20;;;;;;5058570;28;25055;-68
2022/04/03 11:16:09;;;;;;;5.05;0.73;;;6.80;31.70;;;;;;5036992;28;25125;-69
2022/04/03 11:18:52;;;;;;;5.18;0.85;;;6.80;30.90;;;;;;5049152;28;25100;-70
2022/04/03 11:21:22;;;;;;;1.02;0.60;;;6.80;30.00;;;;;;5057787;28;25078;-69
2022/04/03 11:24:07;;;;;;;0.70;0.57;;;6.90;29.40;;;;;;5065812;28;25132;-67
2022/04/03 11:26:34;;;;;;;1.63;0.63;;;7.00;28.30;;;;;;5068564;28;25080;-70
2022/04/03 11:29:00;;;;;;;2.65;0.70;;;7.20;29.20;;;;;;5069908;28;25057;-68
2022/04/03 11:31:26;;;;;;;3.78;0.70;;;7.20;28.60;;;;;;5046571;28;25092;-70
2022/04/03 11:33:52;;;;;;;3.70;0.73;;;7.10;27.60;;;;;;5032760;28;25052;-73
2022/04/03 11:36:25;;;;;;;3.33;1.02;;;7.20;28.60;;;;;;5070440;28;25103;-73
2022/04/03 11:38:52;;;;;;;1.23;0.50;;;7.30;28.40;;;;;;5058029;28;25106;-71
2022/04/03 11:41:31;;;;;;;0.70;0.70;;;7.10;28.90;;;;;;5055665;28;25142;-72
2022/04/03 11:43:59;;;;;;;6.43;1.05;;;7.30;29.70;;;;;;5056633;28;25065;-72
2022/04/03 11:46:25;;;;;;;3.70;0.90;;;7.40;30.00;;;;;;5039107;28;25063;-72
2022/04/03 11:48:50;;;;;;;4.35;0.70;;;7.50;30.00;;;;;;5066278;28;25065;-73
2022/04/03 11:51:19;;;;;;;3.45;0.98;;;7.70;29.40;;;;;;5066692;28;25087;-71
2022/04/03 11:56:18;;;;;;;1.95;0.70;;;7.60;30.20;;;;;;5082744;22;25158;-74
2022/04/03 11:58:49;;;;;;;5.78;0.82;;;7.80;31.40;;;;;;5057352;28;25082;-72
2022/04/03 12:01:31;;;;;;;4.97;1.23;;;8.40;34.00;;;;;;5058114;28;25109;-72
2022/04/03 12:04:13;;;;;;;4.68;1.13;;;8.80;33.30;;;;;;5056741;28;25140;-76
2022/04/03 12:06:43;;;;;;;2.55;0.93;;;9.10;34.40;;;;;;5058806;28;25122;-73
2022/04/03 12:09:11;;;;;;;3.22;1.80;;;8.70;35.10;;;;;;5055238;28;25073;-71
2022/04/03 12:11:38;;;;;;;2.83;1.20;;;8.30;37.70;;;;;;5040629;28;25087;-70
2022/04/03 12:14:06;;;;;;;1.58;1.25;;;8.10;39.00;;;;;;5058517;28;25075;-72
2022/04/03 12:16:33;;;;;;;5.32;1.05;;;7.90;40.90;;;;;;5061844;28;25080;-74
2022/04/03 12:19:01;;;;;;;2.88;1.20;;;8.50;40.10;;;;;;5063249;28;25105;-72
2022/04/03 12:21:43;;;;;;;2.25;1.10;;;9.10;38.30;;;;;;5069119;28;25137;-72
2022/04/03 12:24:17;;;;;;;2.80;1.05;;;9.50;34.80;;;;;;5058564;28;25078;-73
2022/04/03 12:26:56;;;;;;;2.97;1.08;;;9.80;33.60;;;;;;5071874;28;25052;-73
2022/04/03 12:29:25;;;;;;;2.22;1.27;;;10.10;31.50;;;;;;5071513;28;25133;-73
2022/04/03 12:32:00;;;;;;;2.00;1.38;;;9.80;30.90;;;;;;5070179;28;25056;-72
2022/04/03 12:34:34;;;;;;;1.67;0.88;;;10.40;31.10;;;;;;5071544;28;25131;-73
2022/04/03 12:37:02;;;;;;;2.60;1.13;;;11.00;28.60;;;;;;5071859;28;25053;-73
2022/04/03 12:39:34;;;;;;;4.57;1.77;;;11.10;27.30;;;;;;5072255;28;25129;-73
2022/04/03 12:42:10;;;;;;;1.30;0.80;;;11.50;26.20;;;;;;5071999;28;25065;-72
2022/04/03 12:44:43;;;;;;;3.22;1.00;;;11.80;23.20;;;;;;5072745;28;25160;-74
2022/04/03 12:47:12;;;;;;;;;;;11.10;21.30;;;;;;5074772;28;25066;-72
2022/04/03 12:49:40;;;;;;;2.67;0.90;;;9.60;23.90;;;;;;5077231;28;24108;-72
2022/04/03 12:52:06;;;;;;;2.90;0.85;;;8.90;24.60;;;;;;5077024;28;25067;-72
2022/04/03 12:54:42;;;;;;;1.73;0.77;;;9.00;23.20;;;;;;5059784;28;25095;-73
2022/04/03 13:00:17;;;;;;;4.28;1.20;;;8.60;20.20;;;;;;5085101;28;25093;-73
2022/04/03 13:02:44;;;;;;;2.63;0.70;;;9.10;20.80;;;;;;5094680;28;25088;-74
2022/04/03 13:05:17;;;;;;;1.35;0.70;;;9.10;20.00;;;;;;5098104;28;25151;-75